Southport, California
Current Conditions -  °F | °C
As of 7:53 PM on Saturday 20 Dec 2014 (Local Time) from KSAC Reporting Station
Overcast Overcast  
Wind Chill: 57°   Ceiling: 4400
Heat Index: 57°   Visibility: 10mi
Dew Point: 53°   Wind: 6mph
Humidity: 87%   Direction: 120°ESE
Pressure: 30.23"   Gusts: NA
Location:  38.5256°N, 121.556°W
Report Text: KSAC 210353Z AUTO 12005KT 10SM OVC044 14/12 A3023 RMK AO2 RAB00E10 SLP237 P0000 T01390117 TSNO
Loading
Personal Weather Stations






























Interactive Weather Map New forecast layout! Learn more

10-Day Weather Forecast

Advertisements
Track Severe Weather on mobile